createdAt,value
2023-02-07T00:04:37.812Z,6.30
2023-02-07T00:07:10.239Z,6.17
2023-02-07T00:09:42.705Z,6.67
2023-02-07T00:12:14.977Z,6.15
2023-02-07T00:14:47.613Z,7.00
2023-02-07T00:17:19.853Z,6.87
2023-02-07T00:19:52.148Z,6.40
2023-02-07T00:22:24.358Z,6.53
2023-02-07T00:24:56.486Z,6.70
2023-02-07T00:27:28.666Z,6.35
2023-02-07T00:30:00.756Z,6.90
2023-02-07T00:32:35.006Z,6.03
2023-02-07T00:35:07.952Z,6.40
2023-02-07T00:37:40.023Z,6.47
2023-02-07T00:40:14.035Z,6.05
2023-02-07T00:42:47.441Z,6.15
2023-02-07T00:45:22.344Z,6.37
2023-02-07T00:47:54.395Z,7.00
2023-02-07T00:50:26.815Z,7.78
2023-02-07T00:52:58.969Z,7.55
2023-02-07T00:55:31.106Z,8.28
2023-02-07T00:58:03.191Z,8.43
2023-02-07T01:00:35.261Z,8.28
2023-02-07T01:03:10.125Z,8.87
2023-02-07T01:05:42.869Z,8.30
2023-02-07T01:08:15.673Z,7.50
2023-02-07T01:10:48.571Z,7.20
2023-02-07T01:13:21.034Z,7.40
2023-02-07T01:18:25.540Z,6.90
2023-02-07T01:20:59.621Z,6.65
2023-02-07T01:23:35.172Z,6.63
2023-02-07T01:26:11.394Z,7.30
2023-02-07T01:28:46.774Z,7.40
2023-02-07T01:31:22.557Z,8.20
2023-02-07T01:34:00.053Z,6.30
2023-02-07T01:36:32.389Z,6.35
2023-02-07T01:41:40.954Z,6.07
2023-02-07T01:44:43.145Z,6.00
2023-02-07T01:47:18.088Z,6.10
2023-02-07T01:49:51.702Z,5.90
2023-02-07T01:52:27.948Z,5.90
2023-02-07T01:55:02.536Z,6.17
2023-02-07T01:57:34.621Z,5.93
2023-02-07T02:00:09.923Z,5.42
2023-02-07T02:02:46.781Z,5.65
2023-02-07T02:05:19.233Z,5.15
2023-02-07T02:07:52.186Z,5.85
2023-02-07T02:10:26.123Z,5.12
2023-02-07T02:13:12.373Z,5.70
2023-02-07T02:15:47.589Z,5.60
2023-02-07T02:18:25.861Z,5.70
2023-02-07T02:21:16.480Z,5.70
2023-02-07T02:23:58.659Z,5.20
2023-02-07T02:26:48.427Z,5.53
2023-02-07T02:29:37.700Z,5.40
2023-02-07T02:32:29.229Z,5.60
2023-02-07T02:35:08.576Z,5.40
2023-02-07T02:37:46.040Z,5.15
2023-02-07T02:40:21.779Z,4.80
2023-02-07T02:42:55.845Z,5.60
2023-02-07T02:45:30.236Z,4.80
2023-02-07T02:48:04.088Z,4.57
2023-02-07T02:50:36.285Z,5.10
2023-02-07T02:53:11.057Z,4.45
2023-02-07T02:55:50.755Z,4.85
2023-02-07T02:58:28.138Z,4.80
2023-02-07T03:01:07.710Z,4.57
2023-02-07T03:03:59.522Z,4.93
2023-02-07T03:06:40.146Z,4.87
2023-02-07T03:09:17.972Z,4.85
2023-02-07T03:11:54.240Z,5.00
2023-02-07T03:14:32.354Z,4.70
2023-02-07T03:17:09.084Z,4.40
2023-02-07T03:19:42.978Z,4.40
2023-02-07T03:22:17.034Z,4.70
2023-02-07T03:24:51.880Z,5.45
2023-02-07T03:27:25.151Z,5.05
2023-02-07T03:29:59.346Z,5.73
2023-02-07T03:32:36.235Z,5.53
2023-02-07T03:35:11.845Z,5.93
2023-02-07T03:37:45.935Z,7.67
2023-02-07T03:40:18.824Z,7.80
2023-02-07T03:42:53.537Z,7.40
2023-02-07T03:45:25.639Z,8.15
2023-02-07T03:47:57.648Z,8.08
2023-02-07T03:50:29.892Z,9.45
2023-02-07T03:53:03.175Z,10.13
2023-02-07T03:55:35.699Z,9.35
2023-02-07T03:58:09.770Z,8.95
2023-02-07T04:00:42.065Z,7.90
2023-02-07T04:03:14.282Z,7.95
2023-02-07T04:05:47.485Z,7.33
2023-02-07T04:08:19.632Z,6.53
2023-02-07T04:11:00.300Z,7.45
2023-02-07T04:13:32.464Z,6.87
2023-02-07T04:16:05.978Z,6.47
2023-02-07T04:18:38.219Z,6.53
2023-02-07T04:21:10.781Z,6.58
2023-02-07T04:26:14.046Z,7.37
2023-02-07T04:28:47.790Z,7.60
2023-02-07T04:31:19.792Z,7.30
2023-02-07T04:33:51.834Z,6.47
2023-02-07T04:36:25.014Z,7.42
2023-02-07T04:38:57.036Z,7.73
2023-02-07T04:41:29.329Z,8.20
2023-02-07T04:44:01.427Z,8.35
2023-02-07T04:46:34.663Z,8.95
2023-02-07T04:49:06.751Z,10.07
2023-02-07T04:51:38.972Z,8.98
2023-02-07T04:54:10.982Z,9.43
2023-02-07T04:56:43.152Z,8.65
2023-02-07T04:59:15.242Z,9.20
2023-02-07T05:01:49.552Z,8.88
2023-02-07T05:04:21.701Z,8.77
2023-02-07T05:09:24.268Z,10.17
2023-02-07T05:11:56.409Z,9.08
2023-02-07T05:14:29.300Z,9.08
2023-02-07T05:17:01.465Z,9.70
2023-02-07T05:19:34.197Z,9.25
2023-02-07T05:22:06.799Z,9.77
2023-02-07T05:24:38.859Z,10.65
2023-02-07T05:27:11.138Z,12.85
2023-02-07T05:29:49.610Z,11.97
2023-02-07T05:32:39.508Z,12.05
2023-02-07T05:35:13.431Z,12.13
2023-02-07T05:37:45.647Z,12.10
2023-02-07T05:40:17.871Z,11.68
2023-02-07T05:42:50.141Z,12.73
2023-02-07T05:47:52.824Z,11.40
2023-02-07T05:50:26.298Z,12.40
2023-02-07T05:53:09.509Z,18.20
2023-02-07T05:55:41.796Z,24.95
2023-02-07T05:58:13.989Z,23.73
2023-02-07T06:00:47.187Z,21.77
2023-02-07T06:03:19.422Z,18.70
2023-02-07T06:05:51.706Z,19.15
2023-02-07T06:08:23.773Z,19.92
2023-02-07T06:10:56.056Z,18.92
2023-02-07T06:13:28.503Z,17.32
2023-02-07T06:18:31.152Z,13.80
2023-02-07T06:21:03.404Z,13.83
2023-02-07T06:23:35.798Z,14.30
2023-02-07T06:26:08.001Z,13.78
2023-02-07T06:28:41.325Z,11.88
2023-02-07T06:31:13.668Z,14.60
2023-02-07T06:36:16.641Z,11.45
2023-02-07T06:38:49.290Z,10.30
2023-02-07T06:41:21.474Z,9.97
2023-02-07T06:43:53.624Z,11.18
2023-02-07T06:46:25.735Z,9.35
2023-02-07T06:49:00.242Z,9.00
2023-02-07T06:51:33.416Z,9.40
2023-02-07T06:54:09.694Z,9.23
2023-02-07T06:56:41.716Z,9.60
2023-02-07T06:59:14.444Z,9.38
2023-02-07T07:01:49.387Z,10.37
2023-02-07T07:04:22.029Z,10.30
2023-02-07T07:06:54.306Z,9.70
2023-02-07T07:09:26.511Z,9.43
2023-02-07T07:12:01.779Z,9.83
2023-02-07T07:14:35.094Z,10.07
2023-02-07T07:17:08.644Z,10.00
2023-02-07T07:19:41.047Z,10.90
2023-02-07T07:22:13.325Z,10.70
2023-02-07T07:24:45.704Z,10.55
2023-02-07T07:27:17.679Z,10.18
2023-02-07T07:29:49.812Z,9.95
2023-02-07T07:32:33.557Z,10.18
2023-02-07T07:35:10.242Z,10.20
2023-02-07T07:37:42.308Z,9.90
2023-02-07T07:40:14.684Z,9.63
2023-02-07T07:45:26.304Z,12.33
2023-02-07T07:47:58.517Z,12.15
2023-02-07T07:50:30.637Z,12.70
2023-02-07T07:53:02.729Z,10.72
2023-02-07T07:55:38.566Z,10.20
2023-02-07T07:58:34.113Z,8.85
2023-02-07T08:01:06.926Z,9.07
2023-02-07T08:03:39.107Z,10.40
2023-02-07T08:06:11.382Z,9.70
2023-02-07T08:08:43.500Z,10.15
2023-02-07T08:14:33.336Z,10.37
2023-02-07T08:17:05.657Z,10.68
2023-02-07T08:19:38.711Z,10.75
2023-02-07T08:22:10.914Z,11.05
2023-02-07T08:24:43.258Z,10.93
2023-02-07T08:29:46.492Z,11.43
2023-02-07T08:32:18.800Z,11.00
2023-02-07T08:34:50.933Z,10.15
2023-02-07T08:37:23.898Z,9.73
2023-02-07T08:39:55.965Z,10.30
2023-02-07T08:42:28.307Z,8.63
2023-02-07T08:45:00.489Z,10.18
2023-02-07T08:47:34.898Z,10.10
2023-02-07T08:50:17.324Z,10.90
2023-02-07T08:57:10.159Z,10.00
2023-02-07T09:00:50.415Z,10.33
2023-02-07T09:03:53.454Z,10.30
2023-02-07T09:14:22.907Z,9.65
2023-02-07T09:25:34.800Z,8.15
2023-02-07T09:46:46.725Z,10.30
2023-02-07T09:56:39.994Z,12.65
2023-02-07T09:59:46.059Z,12.25
2023-02-07T10:03:12.305Z,12.30
2023-02-07T10:06:12.724Z,12.50
2023-02-07T10:16:27.123Z,8.75
2023-02-07T10:19:54.620Z,12.55
2023-02-07T10:23:05.089Z,10.33
2023-02-07T10:26:03.371Z,11.67
2023-02-07T10:28:59.675Z,12.20
2023-02-07T10:31:55.920Z,11.97
2023-02-07T10:34:51.440Z,11.85
2023-02-07T10:41:27.062Z,10.33
2023-02-07T10:44:03.976Z,9.33
2023-02-07T10:46:57.638Z,10.03
2023-02-07T10:49:30.457Z,9.30
2023-02-07T10:52:04.743Z,8.67
2023-02-07T10:54:54.061Z,9.53
2023-02-07T10:57:33.446Z,11.13
2023-02-07T11:00:32.887Z,10.95
2023-02-07T11:03:10.741Z,10.60
2023-02-07T11:05:58.552Z,10.60
2023-02-07T11:08:34.530Z,8.95
2023-02-07T11:11:22.997Z,8.60
2023-02-07T11:13:59.041Z,9.33
2023-02-07T11:28:00.689Z,8.85
2023-02-07T11:31:12.071Z,8.20
2023-02-07T11:34:23.490Z,10.10
2023-02-07T11:37:36.745Z,10.90
2023-02-07T11:40:25.012Z,9.80
2023-02-07T11:43:19.698Z,9.37
2023-02-07T11:46:13.659Z,9.10
2023-02-07T11:49:01.950Z,8.20
2023-02-07T11:51:40.133Z,6.60
2023-02-07T13:01:22.058Z,7.97
2023-02-07T13:05:41.505Z,8.80
2023-02-07T13:43:06.069Z,8.77
2023-02-07T13:45:46.363Z,9.20
2023-02-07T13:48:24.854Z,9.90
2023-02-07T13:51:03.723Z,9.90
2023-02-07T13:53:46.610Z,9.10
2023-02-07T13:56:36.414Z,9.27
2023-02-07T13:59:43.066Z,10.03
2023-02-07T14:02:20.308Z,9.80
2023-02-07T14:04:55.031Z,9.35
2023-02-07T14:07:29.970Z,9.90
2023-02-07T14:10:02.135Z,11.50
2023-02-07T14:12:37.334Z,10.58
2023-02-07T14:15:38.998Z,11.50
2023-02-07T14:18:26.956Z,9.67
2023-02-07T14:21:03.503Z,10.65
2023-02-07T14:23:48.890Z,9.40
2023-02-07T14:26:39.779Z,9.17
2023-02-07T14:29:37.950Z,9.25
2023-02-07T14:32:24.376Z,8.80
2023-02-07T14:35:01.504Z,9.85
2023-02-07T14:37:46.544Z,9.85
2023-02-07T14:40:24.006Z,9.00
2023-02-07T14:42:58.316Z,8.40
2023-02-07T14:45:32.896Z,8.70
2023-02-07T14:48:05.531Z,8.90
2023-02-07T14:50:38.429Z,9.45
2023-02-07T14:53:15.387Z,8.27
2023-02-07T14:55:50.461Z,8.90
2023-02-07T14:58:27.434Z,8.60
2023-02-07T15:01:02.666Z,9.90
2023-02-07T15:03:35.608Z,8.97
2023-02-07T15:06:31.597Z,9.80
2023-02-07T15:09:06.733Z,10.30
2023-02-07T15:11:42.395Z,10.65
2023-02-07T15:14:21.047Z,10.70
2023-02-07T15:16:54.569Z,11.40
2023-02-07T15:19:33.057Z,13.50
2023-02-07T15:22:14.342Z,10.85
2023-02-07T15:24:58.847Z,12.27
2023-02-07T15:27:31.879Z,12.45
2023-02-07T15:30:07.350Z,12.25
2023-02-07T15:32:46.458Z,12.20
2023-02-07T15:35:21.693Z,11.97
2023-02-07T15:37:55.244Z,13.00
2023-02-07T15:40:27.833Z,12.10
2023-02-07T15:43:00.237Z,11.25
2023-02-07T15:48:03.751Z,12.65
2023-02-07T15:50:35.948Z,12.55
2023-02-07T15:53:09.527Z,11.97
2023-02-07T15:55:45.060Z,12.40
2023-02-07T15:58:24.936Z,11.65
2023-02-07T16:01:02.913Z,11.93
2023-02-07T16:03:38.864Z,11.80
2023-02-07T16:06:15.942Z,10.73
2023-02-07T16:08:50.242Z,11.87
2023-02-07T16:11:24.739Z,12.50
2023-02-07T16:14:03.054Z,11.90
2023-02-07T16:16:37.740Z,13.13
2023-02-07T16:19:17.884Z,11.43
2023-02-07T16:21:53.876Z,12.40
2023-02-07T16:24:27.714Z,12.77
2023-02-07T16:27:03.840Z,12.50
2023-02-07T16:29:37.731Z,12.50
2023-02-07T16:32:12.357Z,13.17
2023-02-07T16:34:58.787Z,12.83
2023-02-07T16:37:32.528Z,12.67
2023-02-07T16:40:04.723Z,13.00
2023-02-07T16:45:12.356Z,12.40
2023-02-07T16:47:44.805Z,12.80
2023-02-07T16:50:18.909Z,12.75
2023-02-07T16:52:52.123Z,13.00
2023-02-07T16:55:26.666Z,12.70
2023-02-07T16:57:59.076Z,13.50
2023-02-07T17:00:50.357Z,12.45
2023-02-07T17:03:23.278Z,12.87
2023-02-07T17:05:55.815Z,13.25
2023-02-07T17:08:30.296Z,13.45
2023-02-07T17:11:03.625Z,13.00
2023-02-07T17:13:35.548Z,12.77
2023-02-07T17:16:10.541Z,12.47
2023-02-07T17:18:43.597Z,12.13
2023-02-07T17:21:16.840Z,13.17
2023-02-07T17:23:49.630Z,14.40
2023-02-07T17:26:49.253Z,15.50
2023-02-07T17:29:45.170Z,15.10
2023-02-07T17:32:17.346Z,15.40
2023-02-07T17:34:49.553Z,15.63
2023-02-07T17:37:21.706Z,15.95
2023-02-07T17:39:53.623Z,16.80
2023-02-07T17:42:25.711Z,17.32
2023-02-07T17:44:59.637Z,17.65
2023-02-07T17:47:32.106Z,17.65
2023-02-07T17:50:04.759Z,18.00
2023-02-07T17:52:36.859Z,18.63
2023-02-07T17:55:09.300Z,17.42
2023-02-07T17:57:41.702Z,17.75
2023-02-07T18:00:18.332Z,20.33
2023-02-07T18:02:50.316Z,20.65
2023-02-07T18:05:23.241Z,20.32
2023-02-07T18:07:55.390Z,22.35
2023-02-07T18:10:29.178Z,23.27
2023-02-07T18:13:02.218Z,26.90
2023-02-07T18:15:34.396Z,28.55
2023-02-07T18:18:08.444Z,29.00
2023-02-07T18:20:42.106Z,31.20
2023-02-07T18:23:15.644Z,33.80
2023-02-07T18:25:49.952Z,34.87
2023-02-07T18:28:22.265Z,31.55
2023-02-07T18:33:25.320Z,31.67
2023-02-07T18:38:29.161Z,34.60
2023-02-07T18:41:01.575Z,34.90
2023-02-07T18:43:35.523Z,35.30
2023-02-07T18:46:11.402Z,37.65
2023-02-07T18:48:46.247Z,37.70
2023-02-07T18:51:19.705Z,38.25
2023-02-07T18:53:54.341Z,37.57
2023-02-07T18:56:27.458Z,36.13
2023-02-07T18:58:59.651Z,37.27
2023-02-07T19:01:32.196Z,37.03
2023-02-07T19:04:05.341Z,35.57
2023-02-07T19:06:38.443Z,35.33
2023-02-07T19:09:10.883Z,37.00
2023-02-07T19:14:16.678Z,38.38
2023-02-07T19:16:49.719Z,41.27
2023-02-07T19:19:22.052Z,41.50
2023-02-07T19:21:54.322Z,39.33
2023-02-07T19:24:27.131Z,41.65
2023-02-07T19:27:00.772Z,38.97
2023-02-07T19:29:33.653Z,42.17
2023-02-07T19:32:07.556Z,47.05
2023-02-07T19:34:40.275Z,47.97
2023-02-07T19:37:12.666Z,50.10
2023-02-07T19:39:46.413Z,52.17
2023-02-07T19:42:18.982Z,52.43
2023-02-07T19:44:51.305Z,53.25
2023-02-07T19:47:23.643Z,50.08
2023-02-07T19:49:56.871Z,56.48
2023-02-07T19:52:30.108Z,60.85
2023-02-07T19:55:02.113Z,61.87
2023-02-07T19:57:35.477Z,57.90
2023-02-07T20:00:08.491Z,51.97
2023-02-07T20:02:41.294Z,52.95
2023-02-07T20:05:13.591Z,51.85
2023-02-07T20:07:45.986Z,54.15
2023-02-07T20:10:17.977Z,49.80
2023-02-07T20:12:52.168Z,46.40
2023-02-07T20:15:34.517Z,43.50
2023-02-07T20:18:08.600Z,42.47
2023-02-07T20:20:45.469Z,39.80
2023-02-07T20:23:19.127Z,39.45
2023-02-07T20:28:22.168Z,41.60
2023-02-07T20:33:27.746Z,45.25
2023-02-07T20:38:31.723Z,48.45
2023-02-07T20:41:08.246Z,55.30
2023-02-07T20:43:41.113Z,49.47
2023-02-07T20:46:14.185Z,43.05
2023-02-07T20:48:46.851Z,42.90
2023-02-07T20:51:21.002Z,49.00
2023-02-07T20:53:53.215Z,43.20
2023-02-07T20:56:26.241Z,36.58
2023-02-07T20:58:59.582Z,39.60
2023-02-07T21:01:33.949Z,41.20
2023-02-07T21:04:07.920Z,36.85
2023-02-07T21:06:42.979Z,30.73
2023-02-07T21:09:16.452Z,31.37
2023-02-07T21:11:51.661Z,28.60
2023-02-07T21:14:26.669Z,23.95
2023-02-07T21:17:01.616Z,19.90
2023-02-07T21:19:34.937Z,12.95
2023-02-07T21:22:08.101Z,12.63
2023-02-07T21:24:42.289Z,11.70
2023-02-07T21:27:15.483Z,10.80
2023-02-07T21:32:18.517Z,11.03
2023-02-07T21:34:50.810Z,9.83
2023-02-07T21:37:24.815Z,11.83
2023-02-07T21:39:56.879Z,11.00
2023-02-07T21:42:29.608Z,10.38
2023-02-07T21:45:02.113Z,9.75
2023-02-07T21:47:34.318Z,10.63
2023-02-07T21:50:07.341Z,9.45
2023-02-07T21:52:40.120Z,10.00
2023-02-07T21:55:12.254Z,9.45
2023-02-07T21:57:45.489Z,9.48
2023-02-07T22:00:18.220Z,10.47
2023-02-07T22:02:51.108Z,10.15
2023-02-07T22:05:25.110Z,10.15
2023-02-07T22:07:57.499Z,9.80
2023-02-07T22:13:00.665Z,9.75
2023-02-07T22:15:34.267Z,9.40
2023-02-07T22:18:07.046Z,9.05
2023-02-07T22:20:39.431Z,10.30
2023-02-07T22:23:11.572Z,9.97
2023-02-07T22:25:43.623Z,10.10
2023-02-07T22:28:16.502Z,8.75
2023-02-07T22:30:50.193Z,9.33
2023-02-07T22:33:22.862Z,10.20
2023-02-07T22:38:25.833Z,10.40
2023-02-07T22:40:57.920Z,10.10
2023-02-07T22:43:30.609Z,10.45
2023-02-07T22:46:05.589Z,10.95
2023-02-07T22:48:37.934Z,10.60
2023-02-07T22:51:14.229Z,11.70
2023-02-07T22:53:46.805Z,10.95
2023-02-07T22:56:18.892Z,10.85
2023-02-07T22:58:51.675Z,11.57
2023-02-07T23:01:25.515Z,11.40
2023-02-07T23:03:58.576Z,11.73
2023-02-07T23:06:32.656Z,12.40
2023-02-07T23:09:06.126Z,12.53
2023-02-07T23:11:38.167Z,12.35
2023-02-07T23:14:10.675Z,12.68
2023-02-07T23:16:42.928Z,13.30
2023-02-07T23:19:16.057Z,12.80
2023-02-07T23:21:48.637Z,12.55
2023-02-07T23:26:52.457Z,13.35
2023-02-07T23:29:25.575Z,12.25
2023-02-07T23:31:58.109Z,13.13
2023-02-07T23:34:30.336Z,13.13
2023-02-07T23:37:02.770Z,13.62
2023-02-07T23:42:10.614Z,13.10
2023-02-07T23:44:46.431Z,13.20
2023-02-07T23:47:19.176Z,14.20
2023-02-07T23:49:51.925Z,13.20
2023-02-07T23:52:24.351Z,16.00
2023-02-07T23:54:56.351Z,15.20
2023-02-07T23:57:29.805Z,17.52
